sensor_id;sensor_type;location;lat;lon;timestamp;P1;durP1;ratioP1;P2;durP2;ratioP2
19645;SDS011;9971;52.446;13.452;2023-04-06T00:13:08;3.60;;;3.35;;
19645;SDS011;9971;52.446;13.452;2023-04-06T00:43:11;4.58;;;3.37;;
19645;SDS011;9971;52.446;13.452;2023-04-06T01:13:13;4.25;;;3.85;;
19645;SDS011;9971;52.446;13.452;2023-04-06T01:43:16;3.80;;;3.33;;
19645;SDS011;9971;52.446;13.452;2023-04-06T02:13:19;3.83;;;3.52;;
19645;SDS011;9971;52.446;13.452;2023-04-06T02:43:22;3.85;;;3.45;;
19645;SDS011;9971;52.446;13.452;2023-04-06T03:13:25;4.22;;;3.65;;
19645;SDS011;9971;52.446;13.452;2023-04-06T03:43:28;5.40;;;4.15;;
19645;SDS011;9971;52.446;13.452;2023-04-06T04:13:34;4.75;;;4.35;;
19645;SDS011;9971;52.446;13.452;2023-04-06T04:43:37;10.18;;;7.87;;
19645;SDS011;9971;52.446;13.452;2023-04-06T05:13:40;6.00;;;4.75;;
19645;SDS011;9971;52.446;13.452;2023-04-06T05:43:42;3.90;;;3.10;;
19645;SDS011;9971;52.446;13.452;2023-04-06T06:13:45;8.43;;;3.95;;
19645;SDS011;9971;52.446;13.452;2023-04-06T06:43:48;5.37;;;3.22;;
19645;SDS011;9971;52.446;13.452;2023-04-06T07:13:51;5.10;;;3.27;;
19645;SDS011;9971;52.446;13.452;2023-04-06T07:43:55;3.42;;;2.83;;
19645;SDS011;9971;52.446;13.452;2023-04-06T07:48:58;5.03;;;3.20;;
19645;SDS011;9971;52.446;13.452;2023-04-06T08:18:59;2.52;;;2.25;;
19645;SDS011;9971;52.446;13.452;2023-04-06T08:24:02;3.02;;;2.40;;
19645;SDS011;9971;52.446;13.452;2023-04-06T08:29:05;3.35;;;2.35;;
19645;SDS011;9971;52.446;13.452;2023-04-06T08:34:09;3.33;;;2.50;;
19645;SDS011;9971;52.446;13.452;2023-04-06T08:39:11;4.12;;;2.20;;
19645;SDS011;9971;52.446;13.452;2023-04-06T08:44:14;2.60;;;1.92;;
19645;SDS011;9971;52.446;13.452;2023-04-06T08:49:16;3.08;;;2.02;;
19645;SDS011;9971;52.446;13.452;2023-04-06T08:54:19;2.45;;;1.95;;
19645;SDS011;9971;52.446;13.452;2023-04-06T08:59:21;3.15;;;2.00;;
19645;SDS011;9971;52.446;13.452;2023-04-06T09:04:23;2.83;;;1.80;;
19645;SDS011;9971;52.446;13.452;2023-04-06T09:09:25;2.30;;;2.10;;
19645;SDS011;9971;52.446;13.452;2023-04-06T09:14:37;3.90;;;1.65;;
19645;SDS011;9971;52.446;13.452;2023-04-06T09:19:46;3.90;;;1.93;;
19645;SDS011;9971;52.446;13.452;2023-04-06T09:24:49;2.85;;;2.20;;
19645;SDS011;9971;52.446;13.452;2023-04-06T09:29:50;1.93;;;1.70;;
19645;SDS011;9971;52.446;13.452;2023-04-06T09:34:52;1.98;;;1.75;;
19645;SDS011;9971;52.446;13.452;2023-04-06T09:40:01;1.82;;;1.70;;
19645;SDS011;9971;52.446;13.452;2023-04-06T09:44:57;1.60;;;1.50;;
19645;SDS011;9971;52.446;13.452;2023-04-06T09:49:59;1.70;;;1.60;;
19645;SDS011;9971;52.446;13.452;2023-04-06T09:55:02;1.60;;;1.50;;
19645;SDS011;9971;52.446;13.452;2023-04-06T10:00:04;0.70;;;0.70;;
19645;SDS011;9971;52.446;13.452;2023-04-06T10:05:17;1.03;;;1.00;;
19645;SDS011;9971;52.446;13.452;2023-04-06T10:10:20;0.40;;;0.40;;
19645;SDS011;9971;52.446;13.452;2023-04-06T10:15:22;1.57;;;1.20;;
19645;SDS011;9971;52.446;13.452;2023-04-06T10:20:38;0.90;;;0.90;;
19645;SDS011;9971;52.446;13.452;2023-04-06T10:30:56;0.90;;;0.90;;
19645;SDS011;9971;52.446;13.452;2023-04-06T10:35:58;0.70;;;0.70;;
19645;SDS011;9971;52.446;13.452;2023-04-06T10:41:03;1.10;;;0.50;;
19645;SDS011;9971;52.446;13.452;2023-04-06T10:46:06;1.15;;;1.02;;
19645;SDS011;9971;52.446;13.452;2023-04-06T10:51:09;1.30;;;1.10;;
19645;SDS011;9971;52.446;13.452;2023-04-06T10:56:11;1.35;;;0.85;;
19645;SDS011;9971;52.446;13.452;2023-04-06T11:01:15;0.87;;;0.87;;
19645;SDS011;9971;52.446;13.452;2023-04-06T11:06:19;0.80;;;0.80;;
19645;SDS011;9971;52.446;13.452;2023-04-06T11:11:21;0.80;;;0.80;;
19645;SDS011;9971;52.446;13.452;2023-04-06T11:16:25;0.87;;;0.87;;
19645;SDS011;9971;52.446;13.452;2023-04-06T11:21:34;1.33;;;1.03;;
19645;SDS011;9971;52.446;13.452;2023-04-06T11:26:41;0.70;;;0.70;;
19645;SDS011;9971;52.446;13.452;2023-04-06T11:31:48;1.07;;;0.93;;
19645;SDS011;9971;52.446;13.452;2023-04-06T11:36:53;0.72;;;0.72;;
19645;SDS011;9971;52.446;13.452;2023-04-06T11:42:06;0.73;;;0.73;;
19645;SDS011;9971;52.446;13.452;2023-04-06T11:47:08;1.10;;;0.87;;
19645;SDS011;9971;52.446;13.452;2023-04-06T11:52:29;1.30;;;1.10;;
19645;SDS011;9971;52.446;13.452;2023-04-06T11:57:31;1.90;;;1.00;;
19645;SDS011;9971;52.446;13.452;2023-04-06T12:02:33;0.80;;;0.70;;
19645;SDS011;9971;52.446;13.452;2023-04-06T12:07:35;0.60;;;0.60;;
19645;SDS011;9971;52.446;13.452;2023-04-06T12:12:38;0.90;;;0.90;;
19645;SDS011;9971;52.446;13.452;2023-04-06T12:17:40;0.55;;;0.55;;
19645;SDS011;9971;52.446;13.452;2023-04-06T12:22:43;1.17;;;1.07;;
19645;SDS011;9971;52.446;13.452;2023-04-06T12:27:45;0.90;;;0.90;;
19645;SDS011;9971;52.446;13.452;2023-04-06T12:32:48;1.05;;;0.82;;
19645;SDS011;9971;52.446;13.452;2023-04-06T12:37:50;0.95;;;0.78;;
19645;SDS011;9971;52.446;13.452;2023-04-06T12:42:53;1.57;;;1.22;;
19645;SDS011;9971;52.446;13.452;2023-04-06T12:47:55;0.85;;;0.75;;
19645;SDS011;9971;52.446;13.452;2023-04-06T12:52:58;0.70;;;0.70;;
19645;SDS011;9971;52.446;13.452;2023-04-06T12:58:00;0.70;;;0.70;;
19645;SDS011;9971;52.446;13.452;2023-04-06T13:03:03;1.62;;;1.17;;
19645;SDS011;9971;52.446;13.452;2023-04-06T13:08:05;0.65;;;0.65;;
19645;SDS011;9971;52.446;13.452;2023-04-06T13:13:08;0.80;;;0.55;;
19645;SDS011;9971;52.446;13.452;2023-04-06T13:18:10;1.52;;;1.00;;
19645;SDS011;9971;52.446;13.452;2023-04-06T13:23:14;0.50;;;0.50;;
19645;SDS011;9971;52.446;13.452;2023-04-06T13:28:17;0.43;;;0.40;;
19645;SDS011;9971;52.446;13.452;2023-04-06T13:33:20;0.50;;;0.50;;
19645;SDS011;9971;52.446;13.452;2023-04-06T13:38:23;1.33;;;1.03;;
19645;SDS011;9971;52.446;13.452;2023-04-06T13:43:25;1.57;;;1.47;;
19645;SDS011;9971;52.446;13.452;2023-04-06T13:48:28;1.00;;;1.00;;
19645;SDS011;9971;52.446;13.452;2023-04-06T13:53:30;0.80;;;0.80;;
19645;SDS011;9971;52.446;13.452;2023-04-06T13:58:34;1.17;;;1.07;;
19645;SDS011;9971;52.446;13.452;2023-04-06T14:03:36;0.70;;;0.70;;
19645;SDS011;9971;52.446;13.452;2023-04-06T14:08:39;1.17;;;1.12;;
19645;SDS011;9971;52.446;13.452;2023-04-06T14:13:42;0.40;;;0.40;;
19645;SDS011;9971;52.446;13.452;2023-04-06T14:18:47;0.90;;;0.90;;
19645;SDS011;9971;52.446;13.452;2023-04-06T14:23:50;1.23;;;1.07;;
19645;SDS011;9971;52.446;13.452;2023-04-06T14:28:54;0.43;;;0.43;;
19645;SDS011;9971;52.446;13.452;2023-04-06T14:34:00;0.20;;;0.20;;
19645;SDS011;9971;52.446;13.452;2023-04-06T14:39:00;0.30;;;0.30;;
19645;SDS011;9971;52.446;13.452;2023-04-06T14:44:06;1.67;;;1.35;;
19645;SDS011;9971;52.446;13.452;2023-04-06T14:49:09;1.30;;;1.03;;
19645;SDS011;9971;52.446;13.452;2023-04-06T14:54:11;0.40;;;0.40;;
19645;SDS011;9971;52.446;13.452;2023-04-06T14:59:14;0.47;;;0.47;;
19645;SDS011;9971;52.446;13.452;2023-04-06T15:04:17;0.62;;;0.60;;
19645;SDS011;9971;52.446;13.452;2023-04-06T15:09:19;0.78;;;0.78;;
19645;SDS011;9971;52.446;13.452;2023-04-06T15:14:22;0.60;;;0.47;;
19645;SDS011;9971;52.446;13.452;2023-04-06T15:19:25;0.72;;;0.70;;
19645;SDS011;9971;52.446;13.452;2023-04-06T15:24:28;0.78;;;0.70;;
19645;SDS011;9971;52.446;13.452;2023-04-06T15:29:32;0.53;;;0.53;;
19645;SDS011;9971;52.446;13.452;2023-04-06T15:34:36;0.57;;;0.50;;
19645;SDS011;9971;52.446;13.452;2023-04-06T15:39:41;0.30;;;0.30;;
19645;SDS011;9971;52.446;13.452;2023-04-06T15:44:47;0.33;;;0.33;;
19645;SDS011;9971;52.446;13.452;2023-04-06T15:49:51;1.32;;;0.33;;
19645;SDS011;9971;52.446;13.452;2023-04-06T15:54:56;0.33;;;0.33;;
19645;SDS011;9971;52.446;13.452;2023-04-06T15:59:58;0.42;;;0.42;;
19645;SDS011;9971;52.446;13.452;2023-04-06T16:05:00;0.60;;;0.60;;
19645;SDS011;9971;52.446;13.452;2023-04-06T16:10:05;0.40;;;0.40;;
19645;SDS011;9971;52.446;13.452;2023-04-06T16:15:08;0.23;;;0.23;;
19645;SDS011;9971;52.446;13.452;2023-04-06T16:20:11;0.42;;;0.40;;
19645;SDS011;9971;52.446;13.452;2023-04-06T16:25:13;0.70;;;0.50;;
19645;SDS011;9971;52.446;13.452;2023-04-06T16:30:17;0.45;;;0.45;;
19645;SDS011;9971;52.446;13.452;2023-04-06T16:35:19;0.40;;;0.40;;
19645;SDS011;9971;52.446;13.452;2023-04-06T16:40:22;0.30;;;0.30;;
19645;SDS011;9971;52.446;13.452;2023-04-06T16:45:28;0.40;;;0.40;;
19645;SDS011;9971;52.446;13.452;2023-04-06T16:50:35;0.30;;;0.30;;
19645;SDS011;9971;52.446;13.452;2023-04-06T16:55:43;2.35;;;1.40;;
19645;SDS011;9971;52.446;13.452;2023-04-06T17:00:45;1.75;;;1.40;;
19645;SDS011;9971;52.446;13.452;2023-04-06T17:05:51;1.40;;;1.30;;
19645;SDS011;9971;52.446;13.452;2023-04-06T17:10:53;3.77;;;1.23;;
19645;SDS011;9971;52.446;13.452;2023-04-06T17:15:55;2.10;;;1.70;;
19645;SDS011;9971;52.446;13.452;2023-04-06T17:20:58;1.45;;;1.17;;
19645;SDS011;9971;52.446;13.452;2023-04-06T17:26:02;1.60;;;1.50;;
19645;SDS011;9971;52.446;13.452;2023-04-06T17:31:06;2.27;;;1.70;;
19645;SDS011;9971;52.446;13.452;2023-04-06T17:36:09;1.97;;;1.80;;
19645;SDS011;9971;52.446;13.452;2023-04-06T17:41:11;1.62;;;1.52;;
19645;SDS011;9971;52.446;13.452;2023-04-06T17:46:13;2.57;;;1.57;;
19645;SDS011;9971;52.446;13.452;2023-04-06T17:51:17;1.98;;;1.70;;
19645;SDS011;9971;52.446;13.452;2023-04-06T17:56:21;1.90;;;1.80;;
19645;SDS011;9971;52.446;13.452;2023-04-06T18:01:23;2.60;;;2.40;;
19645;SDS011;9971;52.446;13.452;2023-04-06T18:06:26;3.05;;;1.90;;
19645;SDS011;9971;52.446;13.452;2023-04-06T18:11:30;2.00;;;1.80;;
19645;SDS011;9971;52.446;13.452;2023-04-06T18:16:33;2.90;;;2.33;;
19645;SDS011;9971;52.446;13.452;2023-04-06T18:21:35;2.30;;;2.10;;
19645;SDS011;9971;52.446;13.452;2023-04-06T18:26:37;3.50;;;2.45;;
19645;SDS011;9971;52.446;13.452;2023-04-06T18:31:40;4.75;;;2.95;;
19645;SDS011;9971;52.446;13.452;2023-04-06T18:36:42;4.45;;;3.30;;
19645;SDS011;9971;52.446;13.452;2023-04-06T19:06:45;3.83;;;3.45;;
19645;SDS011;9971;52.446;13.452;2023-04-06T19:36:47;4.45;;;3.77;;
19645;SDS011;9971;52.446;13.452;2023-04-06T20:06:50;3.85;;;3.52;;
19645;SDS011;9971;52.446;13.452;2023-04-06T20:36:52;5.30;;;4.80;;
19645;SDS011;9971;52.446;13.452;2023-04-06T21:06:55;5.87;;;4.22;;
19645;SDS011;9971;52.446;13.452;2023-04-06T21:36:58;10.65;;;9.55;;
19645;SDS011;9971;52.446;13.452;2023-04-06T22:07:01;5.37;;;4.75;;
19645;SDS011;9971;52.446;13.452;2023-04-06T22:37:04;5.60;;;4.87;;
19645;SDS011;9971;52.446;13.452;2023-04-06T23:07:09;6.85;;;5.37;;
19645;SDS011;9971;52.446;13.452;2023-04-06T23:37:11;7.12;;;6.42;;
